createdAt,value
2017-01-18T00:00:18.863Z,51.77
2017-01-18T00:00:59.406Z,51.39
2017-01-18T00:01:39.843Z,51.32
2017-01-18T00:02:20.361Z,51.42
2017-01-18T00:03:00.895Z,51.58
2017-01-18T00:03:41.366Z,51.49
2017-01-18T00:04:21.871Z,51.49
2017-01-18T00:05:02.363Z,51.68
2017-01-18T00:05:42.903Z,51.49
2017-01-18T00:06:23.420Z,51.49
2017-01-18T00:07:03.941Z,51.58
2017-01-18T00:07:44.414Z,51.68
2017-01-18T00:08:24.902Z,51.01
2017-01-18T00:09:05.395Z,50.73
2017-01-18T00:09:45.899Z,51.11
2017-01-18T00:10:26.407Z,51.01
2017-01-18T00:11:06.901Z,51.11
2017-01-18T00:11:47.400Z,50.82
2017-01-18T00:12:27.915Z,50.45
2017-01-18T00:13:08.387Z,50.92
2017-01-18T00:13:48.903Z,50.63
2017-01-18T00:14:29.430Z,50.82
2017-01-18T00:15:09.922Z,50.45
2017-01-18T00:15:50.425Z,50.82
2017-01-18T00:16:30.901Z,50.35
2017-01-18T00:17:11.387Z,50.35
2017-01-18T00:17:51.901Z,50.16
2017-01-18T00:18:32.397Z,50.35
2017-01-18T00:19:12.931Z,50.26
2017-01-18T00:19:53.389Z,50.35
2017-01-18T00:20:33.901Z,50.16
2017-01-18T00:21:14.409Z,50.07
2017-01-18T00:21:54.923Z,50.07
2017-01-18T00:22:35.413Z,49.79
2017-01-18T00:23:15.937Z,49.6
2017-01-18T00:23:56.400Z,49.22
2017-01-18T00:24:36.890Z,49.41
2017-01-18T00:25:17.381Z,49.12
2017-01-18T00:25:57.892Z,48.84
2017-01-18T00:26:38.468Z,48.84
2017-01-18T00:27:18.959Z,48.84
2017-01-18T00:27:59.417Z,49.12
2017-01-18T00:28:39.933Z,49.22
2017-01-18T00:29:20.431Z,49.12
2017-01-18T00:30:00.893Z,49.31
2017-01-18T00:30:41.406Z,49.22
2017-01-18T00:31:21.923Z,49.22
2017-01-18T00:32:02.378Z,49.22
2017-01-18T00:32:42.835Z,49.12
2017-01-18T00:33:23.344Z,48.93
2017-01-18T00:34:03.811Z,49.22
2017-01-18T00:34:44.300Z,48.65
2017-01-18T00:35:24.752Z,48.36
2017-01-18T00:36:05.249Z,48.27
2017-01-18T00:36:45.753Z,48.46
2017-01-18T00:37:26.212Z,48.18
2017-01-18T00:38:06.710Z,48.46
2017-01-18T00:38:47.222Z,48.36
2017-01-18T00:39:27.724Z,48.55
2017-01-18T00:40:08.239Z,48.46
2017-01-18T00:40:48.745Z,48.65
2017-01-18T00:41:29.287Z,48.46
2017-01-18T00:42:09.748Z,48.46
2017-01-18T00:42:50.253Z,48.27
2017-01-18T00:43:30.723Z,48.36
2017-01-18T00:44:11.232Z,48.36
2017-01-18T00:44:51.760Z,48.27
2017-01-18T00:45:32.230Z,47.7
2017-01-18T00:46:12.715Z,48.1
2017-01-18T00:46:53.232Z,48.08
2017-01-18T00:47:33.754Z,47.99
2017-01-18T00:48:14.279Z,48.08
2017-01-18T00:48:54.798Z,48.08
2017-01-18T00:49:35.325Z,47.99
2017-01-18T00:50:15.825Z,47.89
2017-01-18T00:50:56.344Z,47.89
2017-01-18T00:51:36.832Z,47.7
2017-01-18T00:52:17.352Z,47.99
2017-01-18T00:52:57.849Z,48.08
2017-01-18T00:53:38.376Z,47.99
2017-01-18T00:54:18.872Z,48.08
2017-01-18T00:54:59.355Z,47.8
2017-01-18T00:55:39.862Z,48.08
2017-01-18T00:56:20.357Z,48.08
2017-01-18T00:57:00.860Z,47.91
2017-01-18T00:57:41.373Z,47.72
2017-01-18T00:58:21.883Z,47.7
2017-01-18T00:59:02.357Z,47.91
2017-01-18T00:59:42.856Z,47.82
2017-01-18T01:00:23.339Z,47.53
2017-01-18T01:01:03.859Z,47.72
2017-01-18T01:01:44.380Z,47.63
2017-01-18T01:02:24.873Z,47.89
2017-01-18T01:03:05.355Z,47.82
2017-01-18T01:03:45.851Z,47.89
2017-01-18T01:04:26.376Z,47.61
2017-01-18T01:05:06.853Z,48.18
2017-01-18T01:05:47.312Z,48.2
2017-01-18T01:06:27.823Z,47.91
2017-01-18T01:07:08.314Z,47.63
2017-01-18T01:07:48.820Z,47.63
2017-01-18T01:08:29.345Z,47.53
2017-01-18T01:09:09.848Z,47.63
2017-01-18T01:09:50.329Z,47.63
2017-01-18T01:10:30.846Z,48.01
2017-01-18T01:11:11.340Z,48.1
2017-01-18T01:11:51.839Z,47.82
2017-01-18T01:12:32.349Z,48.01
2017-01-18T01:13:12.879Z,47.8
2017-01-18T01:13:53.376Z,48.2
2017-01-18T01:14:33.869Z,48.1
2017-01-18T01:15:14.361Z,48.2
2017-01-18T01:15:55.024Z,48.1
2017-01-18T01:16:35.555Z,47.82
2017-01-18T01:17:16.024Z,47.53
2017-01-18T01:17:56.498Z,47.63
2017-01-18T01:18:36.984Z,47.89
2017-01-18T01:19:17.499Z,48.08
2017-01-18T01:19:57.975Z,48.1
2017-01-18T01:20:38.493Z,47.91
2017-01-18T01:21:18.992Z,48.01
2017-01-18T01:21:59.473Z,47.91
2017-01-18T01:22:40.013Z,47.63
2017-01-18T01:23:20.554Z,47.63
2017-01-18T01:24:01.053Z,47.72
2017-01-18T01:24:41.568Z,47.82
2017-01-18T01:25:22.077Z,47.53
2017-01-18T01:26:02.585Z,47.53
2017-01-18T01:26:43.108Z,47.63
2017-01-18T01:27:23.616Z,47.72
2017-01-18T01:28:04.131Z,48.2
2017-01-18T01:28:44.621Z,48.01
2017-01-18T01:29:25.125Z,48.1
2017-01-18T01:30:05.623Z,48.2
2017-01-18T01:30:46.111Z,48.29
2017-01-18T01:31:26.613Z,48.2
2017-01-18T01:32:07.122Z,48.1
2017-01-18T01:32:47.613Z,48.01
2017-01-18T01:33:28.104Z,47.99
2017-01-18T01:34:08.594Z,48.2
2017-01-18T01:34:49.106Z,48.49
2017-01-18T01:35:29.578Z,48.2
2017-01-18T01:36:10.081Z,47.82
2017-01-18T01:36:50.549Z,47.82
2017-01-18T01:37:31.103Z,47.99
2017-01-18T01:38:11.538Z,47.89
2017-01-18T01:38:52.091Z,48.01
2017-01-18T01:39:32.554Z,47.89
2017-01-18T01:40:13.056Z,48.08
2017-01-18T01:40:53.568Z,48.2
2017-01-18T01:41:34.059Z,48.2
2017-01-18T01:42:14.551Z,48.1
2017-01-18T01:42:55.061Z,48.01
2017-01-18T01:43:35.544Z,48.01
2017-01-18T01:45:48.816Z,48.01
2017-01-18T01:46:29.325Z,48.18
2017-01-18T01:47:09.803Z,48.2
2017-01-18T01:47:50.307Z,48.27
2017-01-18T01:48:30.811Z,48.2
2017-01-18T01:49:11.351Z,48.1
2017-01-18T01:49:51.816Z,48.01
2017-01-18T01:50:32.310Z,48.01
2017-01-18T01:51:12.793Z,48.08
2017-01-18T01:51:53.295Z,47.89
2017-01-18T01:52:33.779Z,48.1
2017-01-18T01:53:14.277Z,48.1
2017-01-18T01:53:54.755Z,48.08
2017-01-18T01:54:35.224Z,48.18
2017-01-18T01:55:15.698Z,48.1
2017-01-18T01:55:56.194Z,48.08
2017-01-18T01:56:36.706Z,48.2
2017-01-18T01:57:17.179Z,48.2
2017-01-18T01:59:15.379Z,48.2
2017-01-18T01:59:55.867Z,48.08
2017-01-18T02:00:36.378Z,48.29
2017-01-18T02:01:16.876Z,48.01
2017-01-18T02:01:57.386Z,48.08
2017-01-18T02:02:37.844Z,48.18
2017-01-18T02:03:18.360Z,47.99
2017-01-18T02:03:58.854Z,47.99
2017-01-18T02:04:39.425Z,47.7
2017-01-18T02:05:19.893Z,48.27
2017-01-18T02:06:00.413Z,48.27
2017-01-18T02:06:40.869Z,47.61
2017-01-18T02:07:21.336Z,47.99
2017-01-18T02:08:01.833Z,48.18
2017-01-18T02:08:42.358Z,48.01
2017-01-18T02:09:22.830Z,47.99
2017-01-18T02:10:03.339Z,47.82
2017-01-18T02:10:43.846Z,47.8
2017-01-18T02:11:24.468Z,47.7
2017-01-18T02:12:05.020Z,47.8
2017-01-18T02:12:45.477Z,47.7
2017-01-18T02:13:25.972Z,47.99
2017-01-18T02:14:06.429Z,48.08
2017-01-18T02:14:46.942Z,47.99
2017-01-18T02:15:27.395Z,48.08
2017-01-18T02:16:07.904Z,48.08
2017-01-18T02:16:48.370Z,48.18
2017-01-18T02:17:28.880Z,48.08
2017-01-18T02:18:09.411Z,47.89
2017-01-18T02:18:49.901Z,47.63
2017-01-18T02:19:30.411Z,47.61
2017-01-18T02:20:10.923Z,47.44
2017-01-18T02:20:51.398Z,47.82
2017-01-18T02:21:31.886Z,47.7
2017-01-18T02:22:12.397Z,47.61
2017-01-18T02:22:52.851Z,47.89
2017-01-18T02:23:33.321Z,48.08
2017-01-18T02:24:13.832Z,48.08
2017-01-18T02:24:54.323Z,48.18
2017-01-18T02:25:34.814Z,47.99
2017-01-18T02:26:15.315Z,47.89
2017-01-18T02:26:55.782Z,48.36
2017-01-18T02:27:36.342Z,48.08
2017-01-18T02:28:16.868Z,48.18
2017-01-18T02:28:57.386Z,48.46
2017-01-18T02:29:37.921Z,47.89
2017-01-18T02:30:18.419Z,48.18
2017-01-18T02:30:58.896Z,48.1
2017-01-18T02:31:39.417Z,47.91
2017-01-18T02:32:19.924Z,47.91
2017-01-18T02:33:00.534Z,47.8
2017-01-18T02:33:40.977Z,47.61
2017-01-18T02:34:21.495Z,47.89
2017-01-18T02:35:02.042Z,47.61
2017-01-18T02:35:42.547Z,47.82
2017-01-18T02:36:23.065Z,47.7
2017-01-18T02:37:03.505Z,47.61
2017-01-18T02:37:43.991Z,47.7
2017-01-18T02:38:24.467Z,47.89
2017-01-18T02:39:04.979Z,47.89
2017-01-18T02:39:45.481Z,47.61
2017-01-18T02:40:26.001Z,47.61
2017-01-18T02:41:06.496Z,47.99
2017-01-18T02:41:46.969Z,48.1
2017-01-18T02:42:27.454Z,48.08
2017-01-18T02:43:07.954Z,48.08
2017-01-18T02:43:48.445Z,48.27
2017-01-18T02:44:28.921Z,48.08
2017-01-18T02:45:09.413Z,47.99
2017-01-18T02:45:49.896Z,47.53
2017-01-18T02:46:30.398Z,47.44
2017-01-18T02:47:10.964Z,47.63
2017-01-18T02:47:51.454Z,47.63
2017-01-18T02:48:31.921Z,47.53
2017-01-18T02:49:12.436Z,47.7
2017-01-18T02:49:52.923Z,47.44
2017-01-18T02:50:33.450Z,47.51
2017-01-18T02:51:13.961Z,47.82
2017-01-18T02:51:54.428Z,47.82
2017-01-18T02:52:34.914Z,47.51
2017-01-18T02:53:15.388Z,47.53
2017-01-18T02:53:55.900Z,47.42
2017-01-18T02:54:36.444Z,47.7
2017-01-18T02:55:16.935Z,47.82
2017-01-18T02:55:57.412Z,47.63
2017-01-18T02:56:37.919Z,47.72
2017-01-18T02:57:18.445Z,47.82
2017-01-18T02:57:58.924Z,47.82
2017-01-18T02:58:39.442Z,47.89
2017-01-18T02:59:19.915Z,47.8
2017-01-18T03:00:00.387Z,47.53
2017-01-18T03:00:40.868Z,47.63
2017-01-18T03:01:21.359Z,47.53
2017-01-18T03:02:01.869Z,47.72
2017-01-18T03:02:42.359Z,47.61
2017-01-18T03:03:22.865Z,47.61
2017-01-18T03:04:03.369Z,47.89
2017-01-18T03:04:43.863Z,47.99
2017-01-18T03:05:24.393Z,48.27
2017-01-18T03:06:04.866Z,48.08
2017-01-18T03:06:45.326Z,47.61
2017-01-18T03:07:25.823Z,47.91
2017-01-18T03:08:06.304Z,47.99
2017-01-18T03:08:46.815Z,48.08
2017-01-18T03:09:27.320Z,48.18
2017-01-18T03:10:07.853Z,48.1
2017-01-18T03:10:48.319Z,48.08
2017-01-18T03:11:28.839Z,47.8
2017-01-18T03:12:09.314Z,47.72
2017-01-18T03:12:49.850Z,47.72
2017-01-18T03:13:30.352Z,48.01
2017-01-18T03:14:10.775Z,47.72
2017-01-18T03:14:51.293Z,47.72
2017-01-18T03:15:31.762Z,47.8
2017-01-18T03:16:12.280Z,47.61
2017-01-18T03:16:52.746Z,47.82
2017-01-18T03:17:33.235Z,47.8
2017-01-18T03:18:13.717Z,48.18
2017-01-18T03:18:54.210Z,47.99
2017-01-18T03:19:34.736Z,47.99
2017-01-18T03:20:15.228Z,48.18
2017-01-18T03:20:55.717Z,48.36
2017-01-18T03:21:36.226Z,48.08
2017-01-18T03:22:16.726Z,48.27
2017-01-18T03:22:57.244Z,48.36
2017-01-18T03:23:37.733Z,48.84
2017-01-18T03:24:18.233Z,48.36
2017-01-18T03:24:58.733Z,48.01
2017-01-18T03:25:39.212Z,48.29
2017-01-18T03:26:19.729Z,48.08
2017-01-18T03:27:00.269Z,48.18
2017-01-18T03:27:40.691Z,48.27
2017-01-18T03:28:21.195Z,47.91
2017-01-18T03:29:01.701Z,48.08
2017-01-18T03:29:42.201Z,47.99
2017-01-18T03:30:22.672Z,47.91
2017-01-18T03:31:03.171Z,48.1
2017-01-18T03:31:43.656Z,48.1
2017-01-18T03:32:24.161Z,48.01
2017-01-18T03:33:04.683Z,47.91
2017-01-18T03:33:45.186Z,48.1
2017-01-18T03:34:25.694Z,47.72
2017-01-18T03:35:06.189Z,47.51
2017-01-18T03:35:46.736Z,48.08
2017-01-18T03:36:27.246Z,48.08
2017-01-18T03:37:07.710Z,47.89
2017-01-18T03:37:48.199Z,48.1
2017-01-18T03:38:28.720Z,47.99
2017-01-18T03:39:09.218Z,48.08
2017-01-18T03:39:49.683Z,47.99
2017-01-18T03:40:30.190Z,48.08
2017-01-18T03:41:10.675Z,48.18
2017-01-18T03:41:51.228Z,48.01
2017-01-18T03:42:31.699Z,47.99
2017-01-18T03:43:12.189Z,47.89
2017-01-18T03:43:52.680Z,47.72
2017-01-18T03:44:33.173Z,48.27
2017-01-18T03:45:13.681Z,47.89
2017-01-18T03:45:54.175Z,48.27
2017-01-18T03:46:34.691Z,48.55
2017-01-18T03:47:15.176Z,48.36
2017-01-18T03:47:55.659Z,48.08
2017-01-18T03:48:36.173Z,48.55
2017-01-18T03:49:16.678Z,48.27
2017-01-18T03:49:57.180Z,48.36
2017-01-18T03:50:37.697Z,48.46
2017-01-18T03:51:18.222Z,48.36
2017-01-18T03:51:58.707Z,48.36
2017-01-18T03:52:39.219Z,48.1
2017-01-18T03:53:19.718Z,48.01
2017-01-18T03:54:00.190Z,48.18
2017-01-18T03:54:40.654Z,48.36
2017-01-18T03:55:21.164Z,48.27
2017-01-18T03:56:01.763Z,48.2
2017-01-18T03:56:42.291Z,48.29
2017-01-18T03:57:22.766Z,48.49
2017-01-18T03:58:03.219Z,48.2
2017-01-18T03:58:43.755Z,48.18
2017-01-18T03:59:24.262Z,48.29
2017-01-18T04:00:04.756Z,48.1
2017-01-18T04:00:45.270Z,48.29
2017-01-18T04:01:25.787Z,48.01
2017-01-18T04:02:06.267Z,48.01
2017-01-18T04:02:46.991Z,48.2
2017-01-18T04:03:27.484Z,48.01
2017-01-18T04:04:07.955Z,48.1
2017-01-18T04:04:48.450Z,48.49
2017-01-18T04:05:28.927Z,48.55
2017-01-18T04:06:09.430Z,48.36
2017-01-18T04:06:49.914Z,49.03
2017-01-18T04:07:30.430Z,48.84
2017-01-18T04:08:10.907Z,48.65
2017-01-18T04:08:51.390Z,48.84
2017-01-18T04:09:31.883Z,48.36
2017-01-18T04:10:12.377Z,48.39
2017-01-18T04:10:52.897Z,48.36
2017-01-18T04:11:33.399Z,48.36
2017-01-18T04:12:13.890Z,48.27
2017-01-18T04:12:54.372Z,48.84
2017-01-18T04:13:34.883Z,49.22
2017-01-18T04:14:15.381Z,49.12
2017-01-18T04:14:55.874Z,49.12
2017-01-18T04:15:36.365Z,48.93
2017-01-18T04:16:16.910Z,49.5
2017-01-18T04:16:57.404Z,49.5
2017-01-18T04:17:37.916Z,49.69
2017-01-18T04:18:18.431Z,50.07
2017-01-18T04:18:58.893Z,50.07
2017-01-18T04:19:39.394Z,49.88
2017-01-18T04:20:19.907Z,50.16
2017-01-18T04:21:00.393Z,50.16
2017-01-18T04:21:40.897Z,50.07
2017-01-18T04:22:21.396Z,50.16
2017-01-18T04:23:01.897Z,49.88
2017-01-18T04:23:42.365Z,49.69
2017-01-18T04:24:22.875Z,49.98
2017-01-18T04:25:03.390Z,50.07
2017-01-18T04:25:43.880Z,50.26
2017-01-18T04:26:24.385Z,49.98
2017-01-18T04:27:04.880Z,49.69
2017-01-18T04:27:45.396Z,50.07
2017-01-18T04:28:25.882Z,50.07
2017-01-18T04:29:06.415Z,50.35
2017-01-18T04:29:46.892Z,49.79
2017-01-18T04:30:27.364Z,49.69
2017-01-18T04:31:07.855Z,49.5
2017-01-18T04:31:48.356Z,49.5
2017-01-18T04:32:28.817Z,49.69
2017-01-18T04:33:09.313Z,49.5
2017-01-18T04:33:49.802Z,49.79
2017-01-18T04:34:30.306Z,49.69
2017-01-18T04:35:10.792Z,49.79
2017-01-18T04:35:51.274Z,50.07
2017-01-18T04:36:31.785Z,50.07
2017-01-18T04:37:12.268Z,50.07
2017-01-18T04:37:52.749Z,49.79
2017-01-18T04:38:33.250Z,49.69
2017-01-18T04:39:13.750Z,49.5
2017-01-18T04:39:54.254Z,49.79
2017-01-18T04:40:34.755Z,49.6
2017-01-18T04:41:15.241Z,49.6
2017-01-18T04:41:55.743Z,49.41
2017-01-18T04:42:36.236Z,49.41
2017-01-18T04:43:16.749Z,49.6
2017-01-18T04:43:57.287Z,49.69
2017-01-18T04:44:37.746Z,49.79
2017-01-18T04:45:18.234Z,50.07
2017-01-18T04:45:58.762Z,49.79
2017-01-18T04:46:39.231Z,49.79
2017-01-18T04:47:19.744Z,49.79
2017-01-18T04:48:00.207Z,49.79
2017-01-18T04:48:40.712Z,49.79
2017-01-18T04:49:21.238Z,49.41
2017-01-18T04:50:01.757Z,49.6
2017-01-18T04:50:42.264Z,49.79
2017-01-18T04:51:22.757Z,49.41
2017-01-18T04:52:03.278Z,49.5
2017-01-18T04:52:43.772Z,49.88
2017-01-18T04:53:24.277Z,50.16
2017-01-18T04:54:04.755Z,50.07
2017-01-18T04:54:45.263Z,50.07
2017-01-18T04:55:25.781Z,50.07
2017-01-18T04:56:06.288Z,50.07
2017-01-18T04:56:46.789Z,50.16
2017-01-18T04:57:27.279Z,50.16
2017-01-18T04:58:07.768Z,50.63
2017-01-18T04:58:48.283Z,50.54
2017-01-18T04:59:28.795Z,50.82
2017-01-18T05:00:09.312Z,51.01
2017-01-18T05:00:49.790Z,51.3
2017-01-18T05:01:30.277Z,50.92
2017-01-18T05:02:10.754Z,51.01
2017-01-18T05:02:51.250Z,50.82
2017-01-18T05:03:31.747Z,51.2
2017-01-18T05:04:12.276Z,50.82
2017-01-18T05:04:52.744Z,50.92
2017-01-18T05:05:33.252Z,50.82
2017-01-18T05:06:13.730Z,51.3
2017-01-18T05:06:54.223Z,51.3
2017-01-18T05:07:34.755Z,51.01
2017-01-18T05:08:15.205Z,50.92
2017-01-18T05:08:55.681Z,51.2
2017-01-18T05:09:36.182Z,50.92
2017-01-18T05:10:16.691Z,50.92
2017-01-18T05:10:57.181Z,51.11
2017-01-18T05:11:37.702Z,51.65
2017-01-18T05:12:18.187Z,51.58
2017-01-18T05:12:58.674Z,51.58
2017-01-18T05:13:39.180Z,51.58
2017-01-18T05:14:19.635Z,51.58
2017-01-18T05:15:00.153Z,51.56
2017-01-18T05:15:40.638Z,51.46
2017-01-18T05:16:21.123Z,51.39
2017-01-18T05:17:01.646Z,51.56
2017-01-18T05:17:42.127Z,51.56
2017-01-18T05:18:22.625Z,51.37
2017-01-18T05:19:03.113Z,51.49
2017-01-18T05:19:43.627Z,51.39
2017-01-18T05:20:24.117Z,51.68
2017-01-18T05:21:04.631Z,51.01
2017-01-18T05:21:45.138Z,51.11
2017-01-18T05:22:25.625Z,50.92
2017-01-18T05:23:06.124Z,51.11
2017-01-18T05:23:46.625Z,50.45
2017-01-18T05:24:27.114Z,51.11
2017-01-18T05:25:07.588Z,50.82
2017-01-18T05:25:48.078Z,50.92
2017-01-18T05:26:28.623Z,50.73
2017-01-18T05:27:09.121Z,50.73
2017-01-18T05:27:49.578Z,51.01
2017-01-18T05:28:30.055Z,50.73
2017-01-18T05:29:10.564Z,51.01
2017-01-18T05:29:51.083Z,51.2
2017-01-18T05:30:31.570Z,50.82
2017-01-18T05:31:12.046Z,50.54
2017-01-18T05:31:52.578Z,50.8
2017-01-18T05:32:33.070Z,50.8
2017-01-18T05:33:13.516Z,51.18
2017-01-18T05:33:54.076Z,50.71
2017-01-18T05:34:34.526Z,51.18
2017-01-18T05:35:15.030Z,50.73
2017-01-18T05:35:55.526Z,50.99
2017-01-18T05:36:36.080Z,51.09
2017-01-18T05:37:16.511Z,51.09
2017-01-18T05:37:57.011Z,51.28
2017-01-18T05:38:37.499Z,51.09
2017-01-18T05:39:18.009Z,51.56
2017-01-18T05:39:58.507Z,50.82
2017-01-18T05:40:39.038Z,50.92
2017-01-18T05:41:19.497Z,50.8
2017-01-18T05:42:00.014Z,50.73
2017-01-18T05:42:40.486Z,50.54
2017-01-18T05:43:20.976Z,50.71
2017-01-18T05:44:01.515Z,50.9
2017-01-18T05:44:41.993Z,50.04
2017-01-18T05:45:22.499Z,50.23
2017-01-18T05:46:02.984Z,50.63
2017-01-18T05:46:43.474Z,50.35
2017-01-18T05:47:24.000Z,50.35
2017-01-18T05:48:04.509Z,50.26
2017-01-18T05:48:45.027Z,50.07
2017-01-18T05:49:25.496Z,49.98
2017-01-18T05:50:05.979Z,49.88
2017-01-18T05:50:46.493Z,49.79
2017-01-18T05:52:59.724Z,49.5
2017-01-18T05:53:40.194Z,49.41
2017-01-18T05:54:20.733Z,49.31
2017-01-18T05:55:01.245Z,49.22
2017-01-18T05:55:41.764Z,49.6
2017-01-18T05:56:22.259Z,49.22
2017-01-18T05:57:02.745Z,49.22
2017-01-18T05:57:43.242Z,49.22
2017-01-18T05:58:23.768Z,49.22
2017-01-18T05:59:04.239Z,49.22
2017-01-18T05:59:44.750Z,49.12
2017-01-18T06:00:25.247Z,49.22
2017-01-18T06:01:05.738Z,49.03
2017-01-18T06:01:46.233Z,48.46
2017-01-18T06:02:26.731Z,48.93
2017-01-18T06:03:07.228Z,48.46
2017-01-18T06:03:47.720Z,49.03
2017-01-18T06:04:28.213Z,48.27
2017-01-18T06:05:08.711Z,48.36
2017-01-18T06:05:49.210Z,48.27
2017-01-18T06:06:29.700Z,48.34
2017-01-18T06:07:10.167Z,48.55
2017-01-18T06:07:50.667Z,48.08
2017-01-18T06:08:31.196Z,48.74
2017-01-18T06:09:11.679Z,48.93
2017-01-18T06:09:52.116Z,48.55
2017-01-18T06:10:32.606Z,48.46
2017-01-18T06:11:13.106Z,48.84
2017-01-18T06:11:53.594Z,48.27
2017-01-18T06:12:34.150Z,48.08
2017-01-18T06:13:14.626Z,48.46
2017-01-18T06:13:55.111Z,48.08
2017-01-18T06:14:35.585Z,48.08
2017-01-18T06:15:16.075Z,47.89
2017-01-18T06:15:56.571Z,47.99
2017-01-18T06:16:37.100Z,49.03
2017-01-18T06:17:17.604Z,48.72
2017-01-18T06:17:58.070Z,48.63
2017-01-18T06:18:38.969Z,48.46
2017-01-18T06:19:19.476Z,47.99
2017-01-18T06:19:59.950Z,47.89
2017-01-18T06:20:40.439Z,47.61
2017-01-18T06:21:20.918Z,47.42
2017-01-18T06:22:01.394Z,47.58
2017-01-18T06:22:41.907Z,47.49
2017-01-18T06:23:22.408Z,47.58
2017-01-18T06:24:02.941Z,48.06
2017-01-18T06:24:43.406Z,48.06
2017-01-18T06:25:23.921Z,48.15
2017-01-18T06:26:04.417Z,48.18
2017-01-18T06:26:44.927Z,47.89
2017-01-18T06:27:25.426Z,48.18
2017-01-18T06:28:05.938Z,48.65
2017-01-18T06:28:46.440Z,49.41
2017-01-18T06:29:26.992Z,49.03
2017-01-18T06:30:07.428Z,48.18
2017-01-18T06:32:05.591Z,47.8
2017-01-18T06:32:46.108Z,47.32
2017-01-18T06:33:26.623Z,46.85
2017-01-18T06:34:07.102Z,46.66
2017-01-18T06:34:47.578Z,46.75
2017-01-18T06:35:28.102Z,46.66
2017-01-18T06:36:08.612Z,47.51
2017-01-18T06:36:49.090Z,49.12
2017-01-18T06:37:29.579Z,48.93
2017-01-18T06:38:10.034Z,48.18
2017-01-18T06:38:50.612Z,48.27
2017-01-18T06:39:31.086Z,48.27
2017-01-18T06:40:11.591Z,47.99
2017-01-18T06:40:52.129Z,47.7
2017-01-18T06:41:32.721Z,47.8
2017-01-18T06:42:13.163Z,47.32
2017-01-18T06:42:53.624Z,47.7
2017-01-18T06:43:34.167Z,47.32
2017-01-18T06:44:14.662Z,47.51
2017-01-18T06:44:55.092Z,48.08
2017-01-18T06:45:35.622Z,48.18
2017-01-18T06:46:16.113Z,48.55
2017-01-18T06:46:56.633Z,47.99
2017-01-18T06:47:37.094Z,47.32
2017-01-18T06:48:17.618Z,46.85
2017-01-18T06:48:58.141Z,46.56
2017-01-18T06:49:38.702Z,46.66
2017-01-18T06:50:19.157Z,46.75
2017-01-18T06:50:59.634Z,47.61
2017-01-18T06:51:40.152Z,46.94
2017-01-18T06:52:20.691Z,46.66
2017-01-18T06:53:01.627Z,46.47
2017-01-18T06:53:42.208Z,46.75
2017-01-18T06:54:22.635Z,46.28
2017-01-18T06:55:05.333Z,47.61
2017-01-18T06:55:46.814Z,48.84
2017-01-18T06:56:28.036Z,49.6
2017-01-18T06:57:09.764Z,49.52
2017-01-18T06:57:49.990Z,48.74
2017-01-18T06:58:30.479Z,48.55
2017-01-18T06:59:11.051Z,49.41
2017-01-18T06:59:51.539Z,48.36
2017-01-18T07:00:32.035Z,49.22
2017-01-18T07:01:12.610Z,51.04
2017-01-18T07:01:53.994Z,51.8
2017-01-18T07:02:34.624Z,49.5
2017-01-18T07:03:15.130Z,48.18
2017-01-18T07:03:55.690Z,47.42
2017-01-18T07:04:36.167Z,46.85
2017-01-18T07:05:18.197Z,46.37
2017-01-18T07:06:01.149Z,53.59
2017-01-18T07:06:42.376Z,77.31
2017-01-18T07:07:22.860Z,87.16
2017-01-18T07:08:03.339Z,91.9
2017-01-18T07:08:43.810Z,93.51
2017-01-18T07:09:24.334Z,85.99
2017-01-18T07:10:04.791Z,75.38
2017-01-18T07:10:45.326Z,86.22
2017-01-18T07:11:25.767Z,93.84
2017-01-18T07:12:06.272Z,94.7
2017-01-18T07:12:47.534Z,93.42
2017-01-18T07:13:28.197Z,87.92
2017-01-18T07:14:08.500Z,83.09
2017-01-18T07:14:49.007Z,73.3
2017-01-18T07:15:29.491Z,65.53
2017-01-18T07:16:10.012Z,61.08
2017-01-18T07:16:50.471Z,60.32
2017-01-18T07:17:31.069Z,59.19
2017-01-18T07:18:11.472Z,62.24
2017-01-18T07:18:51.942Z,72.38
2017-01-18T07:19:32.460Z,68.75
2017-01-18T07:20:12.971Z,82.33
2017-01-18T07:20:53.459Z,83.56
2017-01-18T07:21:33.932Z,69.32
2017-01-18T07:22:14.502Z,63.26
2017-01-18T07:22:55.037Z,59.38
2017-01-18T07:23:35.473Z,58.52
2017-01-18T07:24:16.066Z,74.18
2017-01-18T07:24:56.641Z,76.17
2017-01-18T07:25:37.182Z,67.43
2017-01-18T07:26:17.608Z,61.83
2017-01-18T07:26:58.106Z,60.44
2017-01-18T07:27:38.587Z,57.1
2017-01-18T07:28:19.054Z,54.64
2017-01-18T07:28:59.576Z,52.75
2017-01-18T07:29:40.325Z,51.8
2017-01-18T07:30:20.729Z,51.61
2017-01-18T07:31:01.268Z,51.04
2017-01-18T07:31:41.696Z,50.57
2017-01-18T07:32:22.235Z,51.23
2017-01-18T07:33:02.846Z,55.14
2017-01-18T07:33:43.504Z,56.34
2017-01-18T07:34:23.897Z,55.52
2017-01-18T07:35:04.400Z,52.27
2017-01-18T07:35:44.896Z,51.51
2017-01-18T07:36:25.437Z,50.47
2017-01-18T07:37:05.878Z,48.96
2017-01-18T07:37:46.447Z,48.49
2017-01-18T07:38:26.939Z,50.19
2017-01-18T07:39:07.480Z,55.58
2017-01-18T07:39:47.936Z,66.41
2017-01-18T07:40:28.597Z,79.58
2017-01-18T07:41:09.099Z,82.9
2017-01-18T07:41:49.568Z,81.76
2017-01-18T07:42:30.059Z,74.47
2017-01-18T07:43:10.549Z,65.06
2017-01-18T07:43:51.180Z,71.62
2017-01-18T07:44:32.330Z,85.17
2017-01-18T07:45:13.898Z,86.31
2017-01-18T07:45:54.386Z,79.49
2017-01-18T07:46:35.081Z,72.86
2017-01-18T07:47:15.510Z,64.42
2017-01-18T07:47:56.073Z,60.32
2017-01-18T07:48:36.517Z,59.09
2017-01-18T07:49:16.963Z,55.58
2017-01-18T07:49:57.445Z,56.15
2017-01-18T07:50:38.112Z,56.94
2017-01-18T07:51:18.594Z,54.64
2017-01-18T07:51:59.112Z,51.8
2017-01-18T07:52:39.621Z,50.19
2017-01-18T07:53:20.050Z,50.85
2017-01-18T07:54:00.560Z,58.24
2017-01-18T07:54:41.084Z,63.35
2017-01-18T07:55:21.600Z,80.44
2017-01-18T07:56:02.048Z,89.58
2017-01-18T07:56:42.492Z,91.28
2017-01-18T07:57:23.098Z,87.26
2017-01-18T07:58:03.602Z,77.69
2017-01-18T07:58:44.084Z,64.11
2017-01-18T07:59:24.557Z,56.91
2017-01-18T08:00:05.142Z,53.69
2017-01-18T08:00:45.597Z,51.04
2017-01-18T08:01:26.101Z,51.7
2017-01-18T08:02:06.630Z,53.97
2017-01-18T08:02:47.112Z,54.35
2017-01-18T08:03:27.652Z,53.69
2017-01-18T08:04:08.124Z,52.08
2017-01-18T08:04:48.597Z,49.71
2017-01-18T08:05:29.088Z,48.96
2017-01-18T08:06:09.573Z,48.68
2017-01-18T08:06:50.145Z,48.01
2017-01-18T08:07:30.615Z,48.96
2017-01-18T08:08:11.116Z,48.2
2017-01-18T08:08:51.599Z,47.82
2017-01-18T08:09:32.073Z,47.82
2017-01-18T08:10:12.522Z,48.1
2017-01-18T08:10:53.050Z,51.32
2017-01-18T08:11:33.490Z,60.22
2017-01-18T08:12:13.988Z,65.91
2017-01-18T08:12:54.440Z,64.39
2017-01-18T08:13:34.967Z,65.84
2017-01-18T08:14:15.431Z,63.92
2017-01-18T08:14:55.905Z,63.57
2017-01-18T08:15:36.417Z,60.73
2017-01-18T08:16:16.906Z,57.51
2017-01-18T08:16:57.361Z,54.93
2017-01-18T08:17:37.859Z,53.81
2017-01-18T08:18:18.387Z,50.76
2017-01-18T08:18:58.823Z,53.97
2017-01-18T08:19:39.334Z,55.33
2017-01-18T08:20:19.850Z,56.46
2017-01-18T08:21:00.383Z,54.95
2017-01-18T08:21:40.825Z,51.64
2017-01-18T08:22:21.412Z,48.41
2017-01-18T08:23:01.782Z,51.54
2017-01-18T08:23:42.318Z,55.43
2017-01-18T08:24:22.763Z,59.03
2017-01-18T08:25:03.479Z,59.22
2017-01-18T08:25:44.388Z,52.46
2017-01-18T08:26:24.775Z,49.71
2017-01-18T08:27:05.274Z,52.46
2017-01-18T08:27:45.734Z,72.29
2017-01-18T08:28:26.391Z,84.94
2017-01-18T08:29:07.095Z,84.23
2017-01-18T08:29:48.207Z,75.79
2017-01-18T08:30:28.706Z,74.85
2017-01-18T08:31:09.162Z,63.39
2017-01-18T08:31:49.665Z,56.18
2017-01-18T08:32:30.105Z,53.63
2017-01-18T08:33:10.596Z,53.81
2017-01-18T08:33:51.147Z,50.88
2017-01-18T08:34:31.624Z,50.21
2017-01-18T08:35:12.195Z,49.33
2017-01-18T08:35:52.630Z,47.63
2017-01-18T08:36:33.096Z,48.22
2017-01-18T08:37:13.665Z,47.66
2017-01-18T08:37:54.274Z,47.34
2017-01-18T08:38:34.761Z,48.98
2017-01-18T08:39:15.275Z,68.88
2017-01-18T08:39:56.007Z,81.14
2017-01-18T08:40:36.610Z,89.86
2017-01-18T08:41:17.056Z,89.39
2017-01-18T08:41:57.590Z,84.94
2017-01-18T08:42:38.119Z,83.13
2017-01-18T08:43:18.493Z,87.3
2017-01-18T08:43:59.008Z,84.08
2017-01-18T08:44:39.555Z,72.29
2017-01-18T08:45:19.986Z,60.16
2017-01-18T08:46:00.512Z,54.1
2017-01-18T08:46:41.297Z,51.07
2017-01-18T08:47:21.683Z,49.46
2017-01-18T08:48:02.140Z,52.01
2017-01-18T08:48:42.715Z,55.43
2017-01-18T08:49:23.245Z,55.26
2017-01-18T08:50:03.744Z,52.29